CheckWX is a tool to help pilots better visualize weather data.  It is not intended as a substitute for an official pre-flight weather briefing.

02:50:24 UTC

KTWF TAF
Joslin Field Magic Valley Regional Airport
Twin Falls, Idaho, USA
KTWF 140520Z 1406/1506 26012KT P6SM SKC FM140800 21010KT P6SM SKC FM141600 27012KT P6SM SKC FM142000 30014G22KT P6SM SKC FM150400 22010KT P6SM SKC

Jul-14@
06:00 UTC

Jul-14 @ 06:00 UTC

Jul-14@
08:00 UTC

Jul-14 @ 08:00 UTC

TAF KTWF 140520Z 1406/1506 26012KT P6SM SKC

Expired

Wind
  • 260° at 12 KTS
Cloud Levels
  • Clear skies

Jul-14@
08:00 UTC

Jul-14 @ 08:00 UTC

Jul-14@
16:00 UTC

Jul-14 @ 16:00 UTC

FM140800 21010KT P6SM SKC

Expired

Wind
  • 210° at 10 KTS
Cloud Levels
  • Clear skies

Jul-14@
16:00 UTC

Jul-14 @ 16:00 UTC

Jul-14@
20:00 UTC

Jul-14 @ 20:00 UTC

FM141600 27012KT P6SM SKC

Expired

Wind
  • 270° at 12 KTS
Cloud Levels
  • Clear skies

Jul-14@
20:00 UTC

Jul-14 @ 20:00 UTC

Jul-15@
04:00 UTC

Jul-15 @ 04:00 UTC

FM142000 30014G22KT P6SM SKC

From

From Standard forecast or significant change

Wind
  • 300° at 14 KTS
  • {Gusting to 22 KTS
Cloud Levels
  • Clear skies

Jul-15@
04:00 UTC

Jul-15 @ 04:00 UTC

Jul-15@
06:00 UTC

Jul-15 @ 06:00 UTC

FM150400 22010KT P6SM SKC

From

From Standard forecast or significant change

Wind
  • 220° at 10 KTS
Cloud Levels
  • Clear skies